KJAS/JAS METAR and TAF weather

Enter ICAO airport designator
Station Type Date Time Source
KJAS METAR 2020/01/17 14:15 UTC NOAA

KJAS 171415Z AUTO 08006KT 10SM OVC012 14/13 A3034 RMK AO2 T01420127


Station Type Date Time Source
KJAS Decoded METAR 2020/01/17 14:15 UTC NOAA

Jasper, Jasper County-Bell Field Airport, TX, United States (KJAS) 30-53-08N 094-02-05W
Jan 17, 2020 - 09:15 AM EST / 2020.01.17 1415 UTC
Wind: from the E (080 degrees) at 7 MPH (6 KT):0
Visibility: 10 mile(s):0
Sky conditions: overcast
Temperature: 57.6 F (14.2 C)
Dew Point: 54.9 F (12.7 C)
Relative Humidity: 90%
Pressure (altimeter): 30.34 in. Hg (1027 hPa)
ob: KJAS 171415Z AUTO 08006KT 10SM OVC012 14/13 A3034 RMK AO2 T01420127
cycle: 14

Station Type Date Time Source
KJAS TAF UTC NOAA

Error!

Example: see airport list